Time;durP1;ratioP1;P1;durP2;ratioP2;P2;SDS_P1;SDS_P2;PMS_P1;PMS_P2;Temp;Humidity;BMP_temperature;BMP_pressure;BME280_temperature;BME280_humidity;BME280_pressure;Samples;Min_cycle;Max_cycle;Signal;HPM_P1;HPM_P2
2022/12/26 00:01:10;;;;;;;36.67;23.13;;;;;;;5.87;100.00;99430.78;5031464;28;20025;-81
2022/12/26 00:03:36;;;;;;;40.30;26.00;;;;;;;5.92;100.00;99425.50;5031879;28;20104;-81
2022/12/26 00:06:01;;;;;;;40.83;24.92;;;;;;;5.95;100.00;99426.25;5031239;28;20032;-81
2022/12/26 00:08:27;;;;;;;37.88;22.65;;;;;;;6.01;100.00;99435.53;5031525;28;20026;-81
2022/12/26 00:10:52;;;;;;;35.42;18.75;;;;;;;6.02;100.00;99431.22;5031679;28;20045;-81
2022/12/26 00:13:18;;;;;;;39.08;23.50;;;;;;;6.06;100.00;99425.91;5029771;28;20171;-81
2022/12/26 00:15:43;;;;;;;35.88;21.67;;;;;;;6.08;100.00;99434.47;5030399;28;20365;-81
2022/12/26 00:18:08;;;;;;;29.92;20.25;;;;;;;6.08;100.00;99418.13;5031313;28;20091;-81
2022/12/26 00:20:34;;;;;;;39.75;23.42;;;;;;;6.03;100.00;99399.31;5028763;28;20029;-81
2022/12/26 00:22:59;;;;;;;36.30;19.85;;;;;;;6.11;100.00;99412.81;5028491;28;20049;-81
2022/12/26 00:25:25;;;;;;;33.60;20.00;;;;;;;6.10;100.00;99419.75;5031701;28;20053;-81
2022/12/26 00:27:50;;;;;;;32.03;20.92;;;;;;;6.14;100.00;99417.91;5032603;28;20026;-81
2022/12/26 00:30:15;;;;;;;34.88;22.63;;;;;;;6.10;100.00;99399.06;5032530;28;20029;-81
2022/12/26 00:32:41;;;;;;;37.95;22.15;;;;;;;6.15;100.00;99409.25;5032722;28;20379;-81
2022/12/26 00:35:07;;;;;;;37.90;24.00;;;;;;;6.15;100.00;99411.84;5015751;28;20056;-81
2022/12/26 00:37:32;;;;;;;39.88;23.83;;;;;;;6.13;100.00;99411.88;5032923;28;20703;-81
2022/12/26 00:39:57;;;;;;;36.83;21.67;;;;;;;6.14;100.00;99411.00;5032337;28;20045;-81
2022/12/26 00:42:23;;;;;;;36.25;22.92;;;;;;;6.16;100.00;99422.16;5015772;28;20018;-81
2022/12/26 00:44:48;;;;;;;38.67;21.23;;;;;;;6.14;100.00;99411.00;5032416;28;20025;-81
2022/12/26 00:47:13;;;;;;;32.40;20.38;;;;;;;6.11;100.00;99400.78;5015694;28;20396;-81
2022/12/26 00:49:39;;;;;;;40.15;23.15;;;;;;;6.14;100.00;99408.41;5032371;28;20484;-81
2022/12/26 00:52:04;;;;;;;39.00;22.75;;;;;;;6.16;100.00;99408.38;5033651;28;20033;-81
2022/12/26 00:54:29;;;;;;;37.45;25.20;;;;;;;6.13;100.00;99404.13;5034970;28;20021;-81
2022/12/26 00:56:55;;;;;;;33.53;20.80;;;;;;;6.16;100.00;99409.22;5034815;28;20043;-81
2022/12/26 00:59:20;;;;;;;33.80;21.20;;;;;;;6.18;100.00;99409.16;5034595;28;20029;-81
2022/12/26 01:01:45;;;;;;;35.70;22.90;;;;;;;6.12;100.00;99409.38;5034721;28;20013;-81
2022/12/26 01:04:11;;;;;;;31.75;21.30;;;;;;;6.14;100.00;99415.31;5034399;28;20021;-81
2022/12/26 01:06:36;;;;;;;37.92;21.95;;;;;;;6.11;100.00;99415.41;5034405;28;20021;-81
2022/12/26 01:09:01;;;;;;;31.67;21.00;;;;;;;6.18;100.00;99427.25;5033202;28;20025;-81
2022/12/26 01:11:39;;;;;;;34.03;19.48;;;;;;;6.24;100.00;99435.66;5034385;28;20034;-81
2022/12/26 01:14:15;;;;;;;33.50;21.48;;;;;;;6.22;100.00;99421.94;5034372;28;20029;-81
2022/12/26 01:16:43;;;;;;;34.67;22.70;;;;;;;6.22;100.00;99414.16;5034417;28;20017;-81
2022/12/26 01:19:09;;;;;;;31.45;20.27;;;;;;;6.22;100.00;99414.16;5034012;28;20201;-81
2022/12/26 01:21:34;;;;;;;32.50;21.95;;;;;;;6.24;100.00;99404.63;5034196;28;20067;-81
2022/12/26 01:24:00;;;;;;;29.58;19.85;;;;;;;6.24;100.00;99401.22;5034031;28;20026;-81
2022/12/26 01:26:25;;;;;;;42.53;24.40;;;;;;;6.14;100.00;99398.06;5034007;28;20021;-81
2022/12/26 01:28:52;;;;;;;33.30;21.25;;;;;;;6.06;100.00;99397.47;5034157;28;20021;-81
2022/12/26 01:31:18;;;;;;;31.08;19.65;;;;;;;6.09;100.00;99386.19;5033800;28;20554;-81
2022/12/26 01:33:44;;;;;;;30.98;19.70;;;;;;;5.97;100.00;99382.25;5034031;28;20044;-81
2022/12/26 01:36:09;;;;;;;33.63;21.92;;;;;;;6.00;100.00;99389.91;5033512;28;20446;-81
2022/12/26 01:38:35;;;;;;;32.97;19.98;;;;;;;5.96;100.00;99384.00;5033772;28;20147;-81
2022/12/26 01:41:15;;;;;;;32.53;20.65;;;;;;;5.93;100.00;99385.81;5034049;28;20028;-81
2022/12/26 01:44:06;;;;;;;32.53;20.27;;;;;;;5.91;100.00;99375.50;5032657;28;20037;-81
2022/12/26 01:46:41;;;;;;;30.05;19.88;;;;;;;5.93;100.00;99385.81;5033513;28;20146;-81
2022/12/26 01:49:11;;;;;;;30.30;21.02;;;;;;;5.89;100.00;99391.94;5032060;28;20021;-81
2022/12/26 01:51:41;;;;;;;33.72;21.40;;;;;;;5.88;100.00;99390.28;5034128;28;20521;-81
2022/12/26 01:54:09;;;;;;;34.00;19.85;;;;;;;5.86;100.00;99408.44;5033602;28;20017;-81
2022/12/26 01:56:38;;;;;;;33.03;19.85;;;;;;;5.89;100.00;99412.63;5033883;28;20029;-81
2022/12/26 01:59:14;;;;;;;37.42;22.52;;;;;;;5.85;100.00;99398.94;5032256;28;20411;-81
2022/12/26 02:01:41;;;;;;;33.40;20.45;;;;;;;5.85;100.00;99369.69;5033355;28;20029;-81
2022/12/26 02:06:56;;;;;;;39.45;23.25;;;;;;;5.87;100.00;99386.00;5033344;28;20386;-81
2022/12/26 02:09:21;;;;;;;37.17;22.80;;;;;;;5.82;100.00;99383.56;5033184;28;20029;-82
2022/12/26 02:11:53;;;;;;;38.38;22.23;;;;;;;5.83;100.00;99379.25;5031852;28;20017;-81
2022/12/26 02:14:19;;;;;;;42.83;21.45;;;;;;;5.79;100.00;99372.47;5033122;28;20025;-81
2022/12/26 02:16:45;;;;;;;35.97;22.58;;;;;;;5.74;100.00;99363.13;5033379;28;20484;-81
2022/12/26 02:19:33;;;;;;;33.85;20.90;;;;;;;5.86;100.00;99359.31;5032975;28;20071;-81
2022/12/26 02:22:37;;;;;;;32.20;19.60;;;;;;;5.87;100.00;99348.06;4991195;28;20038;-81
2022/12/26 02:25:30;;;;;;;31.13;20.67;;;;;;;5.83;100.00;99341.31;4991256;28;20022;-81
2022/12/26 02:28:01;;;;;;;32.90;21.55;;;;;;;5.92;100.00;99364.31;4991252;28;20061;-81
2022/12/26 02:30:37;;;;;;;32.83;22.70;;;;;;;5.93;100.00;99350.47;4974533;28;20478;-81
2022/12/26 02:33:05;;;;;;;33.80;20.38;;;;;;;5.99;100.00;99352.03;4990966;28;20034;-81
2022/12/26 02:35:59;;;;;;;29.08;19.50;;;;;;;6.04;100.00;99346.72;4990756;28;20042;-81
2022/12/26 02:39:00;;;;;;;32.30;21.42;;;;;;;6.06;100.00;99348.34;4932818;29;20523;-81
2022/12/26 02:41:45;;;;;;;24.60;18.13;;;;;;;6.08;100.00;99341.38;4876135;29;20512;-81
2022/12/26 02:47:10;;;;;;;31.40;20.42;;;;;;;6.02;100.00;99318.31;4839152;29;20493;-81
2022/12/26 03:13:24;;;;;;;25.08;18.23;;;;;;;5.90;100.00;99313.50;4839230;29;20070;-81
2022/12/26 03:18:52;;;;;;;33.42;20.60;;;;;;;5.84;100.00;99299.06;4876265;29;20512;-81
2022/12/26 03:21:21;;;;;;;30.98;20.05;;;;;;;5.96;100.00;99311.63;4884755;29;20047;-81
2022/12/26 03:23:50;;;;;;;27.00;18.23;;;;;;;5.91;100.00;99290.22;4917027;29;20043;-81
2022/12/26 03:26:39;;;;;;;29.90;19.65;;;;;;;6.05;100.00;99305.28;4916219;29;20031;-81
2022/12/26 03:32:01;;;;;;;29.80;18.50;;;;;;;6.06;100.00;99288.03;4932777;29;20130;-81
2022/12/26 03:34:28;;;;;;;29.38;20.27;;;;;;;6.07;100.00;99288.00;4932073;29;20190;-81
2022/12/26 03:37:25;;;;;;;29.65;19.33;;;;;;;6.13;100.00;99292.94;4932232;29;20041;-81
2022/12/26 04:20:56;;;;;;;25.05;15.80;;;;;;;6.36;100.00;99294.75;5035633;28;20041;-81
2022/12/26 04:46:23;;;;;;;19.90;14.82;;;;;;;6.60;100.00;99292.19;5012490;28;20376;-82
2022/12/26 04:51:35;;;;;;;21.63;16.23;;;;;;;6.60;100.00;99277.50;5012681;28;20069;-81
2022/12/26 04:54:01;;;;;;;21.25;15.40;;;;;;;6.63;100.00;99276.53;5012958;28;20448;-81
2022/12/26 04:56:26;;;;;;;22.02;16.17;;;;;;;6.59;100.00;99270.63;5012105;28;20128;-81
2022/12/26 04:58:51;;;;;;;25.00;18.60;;;;;;;6.60;100.00;99266.31;5012665;28;20045;-81
2022/12/26 05:09:35;;;;;;;19.42;16.95;;;;;;;6.58;100.00;99258.59;5034034;28;20532;-81
2022/12/26 05:12:06;;;;;;;22.50;15.93;;;;;;;6.56;100.00;99268.16;5034608;28;20083;-81
2022/12/26 05:14:34;;;;;;;22.27;16.70;;;;;;;6.49;100.00;99264.97;5034122;28;20026;-82
2022/12/26 05:31:01;;;;;;;21.13;17.00;;;;;;;6.68;100.00;99259.94;5034281;28;20028;-81
2022/12/26 05:36:12;;;;;;;24.20;16.77;;;;;;;6.72;100.00;99258.94;5034242;28;20106;-81
2022/12/26 05:38:37;;;;;;;20.45;15.88;;;;;;;6.68;100.00;99254.75;5032489;28;20052;-81
2022/12/26 05:41:04;;;;;;;21.35;16.85;;;;;;;6.77;100.00;99278.63;5032630;28;20688;-81
2022/12/26 05:43:30;;;;;;;20.45;16.23;;;;;;;6.75;100.00;99271.75;5033715;28;20030;-81
2022/12/26 05:45:55;;;;;;;20.02;16.42;;;;;;;6.77;100.00;99257.91;5033901;28;20108;-81
2022/12/26 05:48:21;;;;;;;22.17;16.33;;;;;;;6.81;100.00;99259.50;5033580;28;20021;-81
2022/12/26 05:50:46;;;;;;;20.92;16.20;;;;;;;6.87;100.00;99267.00;5033553;28;20487;-81
2022/12/26 05:53:11;;;;;;;23.30;16.25;;;;;;;6.84;100.00;99260.22;5033786;28;20025;-81
2022/12/26 05:55:37;;;;;;;20.95;15.50;;;;;;;6.83;100.00;99257.69;5033489;28;20523;-81
2022/12/26 05:58:02;;;;;;;18.15;15.55;;;;;;;6.83;100.00;99255.94;5033672;28;20415;-81
2022/12/26 06:00:29;;;;;;;18.55;15.32;;;;;;;6.83;100.00;99268.06;5033219;28;20021;-81
2022/12/26 06:02:54;;;;;;;19.55;15.48;;;;;;;6.74;100.00;99266.63;5033509;28;20033;-81
2022/12/26 06:05:20;;;;;;;22.45;16.02;;;;;;;6.73;100.00;99268.38;5031951;28;20022;-81
2022/12/26 06:07:46;;;;;;;22.05;17.17;;;;;;;6.74;100.00;99277.84;5033678;28;20111;-81
2022/12/26 06:10:11;;;;;;;17.80;15.20;;;;;;;6.70;100.00;99275.41;5033498;28;20048;-81
2022/12/26 06:12:37;;;;;;;20.13;15.07;;;;;;;6.66;100.00;99277.28;5033235;28;20013;-81
2022/12/26 06:15:03;;;;;;;17.38;14.93;;;;;;;6.61;100.00;99267.97;5033363;28;20076;-81
2022/12/26 06:17:28;;;;;;;19.05;14.98;;;;;;;6.69;100.00;99271.13;5032958;28;20029;-81
2022/12/26 06:19:54;;;;;;;23.38;15.52;;;;;;;6.76;100.00;99282.97;5033079;28;20021;-81
2022/12/26 06:22:19;;;;;;;20.25;15.63;;;;;;;6.81;100.00;99269.84;5032387;28;20021;-81
2022/12/26 06:24:44;;;;;;;18.42;15.73;;;;;;;6.79;100.00;99272.50;5032996;28;20032;-81
2022/12/26 06:27:10;;;;;;;21.52;14.85;;;;;;;6.82;100.00;99272.38;5033076;28;20032;-81
2022/12/26 06:29:35;;;;;;;18.90;15.13;;;;;;;6.74;100.00;99277.84;5032804;28;20022;-81
2022/12/26 06:32:01;;;;;;;18.58;15.45;;;;;;;6.72;100.00;99278.78;5032935;28;20017;-81
2022/12/26 06:34:26;;;;;;;17.45;14.57;;;;;;;6.77;100.00;99294.16;5032778;28;20457;-81
2022/12/26 06:36:54;;;;;;;17.48;15.25;;;;;;;6.70;100.00;99286.63;5032968;28;20033;-81
2022/12/26 06:39:19;;;;;;;20.65;14.70;;;;;;;6.65;100.00;99270.41;5032824;28;20051;-81
2022/12/26 06:41:45;;;;;;;18.88;16.00;;;;;;;6.71;100.00;99285.72;5032917;28;20037;-81
2022/12/26 06:44:11;;;;;;;17.77;14.48;;;;;;;6.65;100.00;99283.34;5032679;28;20017;-81
2022/12/26 06:46:37;;;;;;;18.60;14.48;;;;;;;6.75;100.00;99296.81;5032334;28;20445;-81
2022/12/26 06:49:05;;;;;;;19.20;15.88;;;;;;;6.74;100.00;99285.63;5032485;28;20021;-81
2022/12/26 06:51:31;;;;;;;23.70;20.98;;;;;;;6.76;100.00;99275.19;5031375;28;20107;-81
2022/12/26 06:54:01;;;;;;;26.83;21.80;;;;;;;6.75;100.00;99279.53;5032724;28;20461;-81
2022/12/26 06:56:27;;;;;;;22.83;17.77;;;;;;;6.71;100.00;99282.28;5029585;28;20136;-81
2022/12/26 06:59:00;;;;;;;25.45;18.33;;;;;;;6.71;100.00;99277.13;5030208;28;20051;-81
2022/12/26 07:01:28;;;;;;;20.23;16.08;;;;;;;6.69;100.00;99286.66;5029689;28;20045;-81
2022/12/26 07:03:54;;;;;;;19.73;15.38;;;;;;;6.73;100.00;99280.47;5029973;28;20021;-81
2022/12/26 07:06:35;;;;;;;25.35;17.17;;;;;;;6.79;100.00;99288.03;5029849;28;20053;-81
2022/12/26 07:09:07;;;;;;;41.22;23.67;;;;;;;6.81;100.00;99291.38;5029874;28;20056;-81
2022/12/26 07:11:35;;;;;;;38.13;22.83;;;;;;;6.79;100.00;99275.09;5029559;28;20064;-81
2022/12/26 07:14:00;;;;;;;33.78;22.00;;;;;;;6.81;100.00;99278.44;5029741;28;20040;-81
2022/12/26 07:16:26;;;;;;;38.90;22.15;;;;;;;6.88;100.00;99285.09;5029735;28;20037;-81
2022/12/26 07:18:53;;;;;;;34.30;22.83;;;;;;;6.89;100.00;99312.66;5029744;28;20040;-81
2022/12/26 07:21:18;;;;;;;29.85;20.05;;;;;;;6.87;100.00;99298.06;5013104;28;20036;-82
2022/12/26 07:23:44;;;;;;;34.28;24.95;;;;;;;6.82;100.00;99279.28;5029308;28;20025;-82
2022/12/26 07:26:09;;;;;;;35.88;25.65;;;;;;;6.90;100.00;99293.63;5029462;28;20022;-82
2022/12/26 07:28:35;;;;;;;32.65;23.02;;;;;;;6.95;100.00;99288.28;5030317;28;20037;-82
2022/12/26 07:31:00;;;;;;;34.15;22.98;;;;;;;6.95;100.00;99291.75;5032124;28;20040;-81
2022/12/26 07:33:27;;;;;;;39.45;26.13;;;;;;;6.95;100.00;99289.16;5031907;28;20021;-81
2022/12/26 07:35:52;;;;;;;47.17;27.55;;;;;;;6.94;100.00;99295.22;5031983;28;20057;-81
2022/12/26 07:38:18;;;;;;;46.78;26.38;;;;;;;6.94;100.00;99300.38;5031663;28;20141;-82
2022/12/26 07:40:43;;;;;;;37.00;22.23;;;;;;;6.97;100.00;99292.50;5031685;28;20025;-82
2022/12/26 07:43:09;;;;;;;34.70;19.80;;;;;;;7.02;100.00;99294.94;5031650;28;20067;-81
2022/12/26 07:45:34;;;;;;;33.72;20.20;;;;;;;6.97;100.00;99283.91;5031272;28;20010;-81
2022/12/26 07:47:59;;;;;;;35.47;19.02;;;;;;;7.09;100.00;99292.97;5031744;28;20484;-81
2022/12/26 07:50:26;;;;;;;34.88;21.38;;;;;;;7.10;100.00;99297.22;5031940;28;20469;-81
2022/12/26 07:52:52;;;;;;;31.70;20.58;;;;;;;7.17;100.00;99294.34;5030382;28;20030;-81
2022/12/26 07:55:17;;;;;;;27.15;18.85;;;;;;;7.23;100.00;99301.03;5030554;28;20522;-80
2022/12/26 07:57:42;;;;;;;30.77;19.92;;;;;;;7.22;100.00;99300.19;5031728;28;20021;-80
2022/12/26 08:00:08;;;;;;;28.70;19.67;;;;;;;7.30;100.00;99312.84;5031943;28;20014;-80
2022/12/26 08:02:34;;;;;;;26.40;18.85;;;;;;;7.36;100.00;99310.00;5031394;28;20369;-82
2022/12/26 08:04:59;;;;;;;37.30;26.30;;;;;;;7.35;100.00;99284.19;5048104;28;20029;-81
2022/12/26 08:07:25;;;;;;;31.50;20.75;;;;;;;7.48;100.00;99294.00;5051641;28;20539;-81
2022/12/26 08:09:50;;;;;;;26.05;18.20;;;;;;;7.54;100.00;99308.44;5051362;28;20017;-81
2022/12/26 08:12:16;;;;;;;22.67;15.65;;;;;;;7.44;100.00;99300.19;5050231;28;20048;-81
2022/12/26 08:14:41;;;;;;;17.70;14.00;;;;;;;7.49;100.00;99312.97;5051185;28;20056;-81
2022/12/26 08:17:07;;;;;;;18.23;13.85;;;;;;;7.62;100.00;99311.56;5051635;28;20100;-81
2022/12/26 08:19:32;;;;;;;18.65;14.30;;;;;;;7.65;100.00;99302.84;5051188;28;20028;-80
2022/12/26 08:21:58;;;;;;;18.02;14.85;;;;;;;7.74;100.00;99294.69;5051459;28;20380;-81
2022/12/26 08:24:23;;;;;;;18.45;14.32;;;;;;;7.69;100.00;99281.91;5051665;28;20029;-80
2022/12/26 08:26:49;;;;;;;18.73;14.93;;;;;;;7.73;100.00;99313.75;5040695;28;20112;-80
2022/12/26 08:29:14;;;;;;;40.80;31.83;;;;;;;7.67;100.00;99319.19;5031393;28;20040;-80
2022/12/26 08:31:39;;;;;;;48.40;37.45;;;;;;;7.56;100.00;99313.59;5031210;28;20033;-80
2022/12/26 08:34:05;;;;;;;35.05;28.05;;;;;;;7.57;100.00;99326.47;5031552;28;20024;-80
2022/12/26 08:36:30;;;;;;;21.98;18.23;;;;;;;7.65;100.00;99326.16;5031455;28;20350;-80
2022/12/26 08:38:57;;;;;;;23.15;18.02;;;;;;;7.79;100.00;99321.25;5031344;28;20033;-81
2022/12/26 08:41:23;;;;;;;18.40;15.32;;;;;;;7.94;100.00;99317.22;5031322;28;20018;-81
2022/12/26 08:43:50;;;;;;;15.05;13.38;;;;;;;8.11;100.00;99319.97;5030858;28;20484;-81
2022/12/26 08:46:16;;;;;;;31.10;20.88;;;;;;;8.21;100.00;99323.84;5035129;28;20100;-80
2022/12/26 08:48:42;;;;;;;46.42;28.45;;;;;;;8.19;100.00;99310.09;5043188;28;20028;-80
2022/12/26 08:51:12;;;;;;;55.88;29.27;;;;;;;8.19;100.00;99323.06;5052923;28;20020;-80
2022/12/26 08:53:37;;;;;;;83.10;44.03;;;;;;;8.18;100.00;99308.41;5054519;28;20029;-80
2022/12/26 08:56:04;;;;;;;56.42;39.28;;;;;;;8.24;100.00;99325.47;5054644;28;20325;-80
2022/12/26 08:58:31;;;;;;;31.77;24.42;;;;;;;8.27;100.00;99325.34;5054719;28;20025;-80
2022/12/26 09:01:13;;;;;;;23.98;17.27;;;;;;;8.40;100.00;99323.94;5054545;28;20025;-80
2022/12/26 09:03:39;;;;;;;18.00;14.05;;;;;;;8.58;100.00;99332.69;5054388;28;20052;-80
2022/12/26 09:06:06;;;;;;;15.70;12.30;;;;;;;8.69;100.00;99330.47;5054373;28;20025;-80
2022/12/26 09:08:33;;;;;;;14.70;12.27;;;;;;;8.75;100.00;99337.13;5054580;28;20083;-80
2022/12/26 09:11:08;;;;;;;15.48;12.52;;;;;;;8.77;100.00;99335.34;5054499;28;20028;-80
2022/12/26 09:13:34;;;;;;;14.65;12.70;;;;;;;8.81;100.00;99339.47;5054364;28;20100;-80
2022/12/26 09:16:12;;;;;;;16.15;13.75;;;;;;;8.80;100.00;99345.56;5054321;28;20031;-80
2022/12/26 09:18:37;;;;;;;20.02;14.80;;;;;;;8.87;100.00;99351.34;5053760;28;20032;-80
2022/12/26 09:21:05;;;;;;;19.25;14.95;;;;;;;8.88;100.00;99348.66;5054042;28;20025;-82
2022/12/26 09:23:31;;;;;;;17.42;15.05;;;;;;;8.86;100.00;99339.28;5054212;28;20074;-82
2022/12/26 09:26:03;;;;;;;19.70;15.55;;;;;;;8.88;100.00;99346.06;5053950;28;20468;-82
2022/12/26 09:28:29;;;;;;;23.50;17.63;;;;;;;8.86;100.00;99337.50;5054147;28;20029;-83
2022/12/26 09:30:59;;;;;;;24.60;20.13;;;;;;;8.90;100.00;99354.66;5051894;28;20029;-82
2022/12/26 09:33:24;;;;;;;24.92;19.60;;;;;;;8.88;100.00;99338.28;5052579;28;20108;-84
2022/12/26 09:35:50;;;;;;;35.72;25.55;;;;;;;8.86;100.00;99323.69;5053687;28;20421;-83
2022/12/26 09:38:15;;;;;;;42.25;27.90;;;;;;;8.82;100.00;99320.38;5052576;28;20573;-82
2022/12/26 09:41:08;;;;;;;31.45;22.08;;;;;;;8.83;100.00;99327.25;5053468;28;20096;-83
2022/12/26 09:44:01;;;;;;;38.80;27.38;;;;;;;8.88;100.00;99327.03;5052206;28;20133;-81
2022/12/26 09:47:03;;;;;;;29.45;22.25;;;;;;;9.04;100.00;99338.44;5053664;28;20461;-83
2022/12/26 09:49:48;;;;;;;29.17;19.25;;;;;;;9.14;100.00;99325.88;5053509;28;20108;-81
2022/12/26 09:52:19;;;;;;;30.05;21.15;;;;;;;9.27;100.00;99345.19;5053756;28;20025;-83
2022/12/26 09:54:52;;;;;;;25.75;18.17;;;;;;;9.46;100.00;99338.22;5053511;28;20444;-83
2022/12/26 09:57:25;;;;;;;24.90;16.67;;;;;;;9.52;100.00;99344.03;5053486;28;20454;-82
2022/12/26 09:59:59;;;;;;;25.77;16.63;;;;;;;9.75;100.00;99341.19;5053562;28;20045;-78
2022/12/26 10:02:25;;;;;;;22.88;15.15;;;;;;;9.79;100.00;99316.72;5053103;28;20364;-82
2022/12/26 10:04:53;;;;;;;19.02;14.45;;;;;;;9.87;100.00;99319.78;5052683;28;20020;-83
2022/12/26 10:07:30;;;;;;;19.75;14.30;;;;;;;9.90;100.00;99327.47;5053477;28;20025;-83
2022/12/26 10:10:11;;;;;;;20.27;13.20;;;;;;;9.86;100.00;99317.25;5053454;28;20466;-82
2022/12/26 10:12:45;;;;;;;15.60;11.98;;;;;;;9.77;100.00;99315.09;5052787;28;20610;-83
2022/12/26 10:15:31;;;;;;;21.48;14.45;;;;;;;9.74;100.00;99313.50;5051668;28;20021;-84
2022/12/26 10:18:23;;;;;;;21.45;14.23;;;;;;;9.64;100.00;99297.50;5051764;28;20021;-83
2022/12/26 10:21:05;;;;;;;17.42;12.75;;;;;;;9.52;100.00;99286.84;5053032;28;20033;-83
2022/12/26 10:23:31;;;;;;;17.65;12.88;;;;;;;9.50;100.00;99295.56;5052968;28;20031;-82
2022/12/26 10:26:19;;;;;;;19.65;13.07;;;;;;;9.44;100.00;99297.63;5051612;28;20540;-82
2022/12/26 10:28:59;;;;;;;15.18;11.73;;;;;;;9.39;100.00;99312.56;5052857;28;20027;-82
2022/12/26 10:31:40;;;;;;;15.82;11.82;;;;;;;9.25;100.00;99297.63;5053028;28;20025;-83
2022/12/26 10:34:17;;;;;;;18.00;14.00;;;;;;;9.31;100.00;99314.69;5052788;28;20013;-82
2022/12/26 10:36:48;;;;;;;19.00;15.80;;;;;;;9.37;100.00;99315.25;5052591;28;20052;-82
2022/12/26 10:39:33;;;;;;;26.40;18.77;;;;;;;9.44;100.00;99288.06;5051275;28;20055;-82
2022/12/26 10:42:07;;;;;;;23.15;16.90;;;;;;;9.81;100.00;99308.84;5052535;28;20021;-82
2022/12/26 10:44:35;;;;;;;22.45;18.05;;;;;;;10.01;100.00;99306.09;5051038;28;20028;-82
2022/12/26 10:47:06;;;;;;;22.67;16.67;;;;;;;10.16;100.00;99304.50;5052467;28;20021;-82
2022/12/26 10:49:32;;;;;;;19.20;12.27;;;;;;;10.17;100.00;99312.22;5051484;28;20361;-79
2022/12/26 10:52:00;;;;;;;14.15;10.25;;;;;;;10.08;100.00;99291.88;5052902;28;20300;-79
2022/12/26 10:54:28;;;;;;;13.27;9.93;;;;;;;10.12;100.00;99305.56;5050960;28;20025;-79
2022/12/26 10:56:55;;;;;;;16.58;12.02;;;;;;;10.03;100.00;99298.19;5051921;28;20109;-83
2022/12/26 10:59:25;;;;;;;25.08;17.38;;;;;;;10.13;100.00;99302.88;5052316;28;20520;-80
2022/12/26 11:01:51;;;;;;;28.65;20.30;;;;;;;10.23;100.00;99298.03;5052091;28;20487;-79
2022/12/26 11:04:22;;;;;;;24.30;20.10;;;;;;;10.34;100.00;99287.97;5052403;28;20048;-83
2022/12/26 11:06:51;;;;;;;23.70;17.65;;;;;;;10.54;100.00;99296.53;5050698;28;20024;-83
2022/12/26 11:09:32;;;;;;;29.40;19.75;;;;;;;10.59;100.00;99291.91;5051625;28;20025;-82
2022/12/26 11:11:57;;;;;;;26.75;19.02;;;;;;;10.52;100.00;99282.72;5052214;28;20048;-83
2022/12/26 11:14:31;;;;;;;23.55;19.88;;;;;;;10.58;100.00;99291.06;5050585;28;20067;-84
2022/12/26 11:17:04;;;;;;;52.60;35.65;;;;;;;10.54;100.00;99279.13;5051521;28;20021;-85
2022/12/26 11:19:41;;;;;;;27.65;19.70;;;;;;;10.54;100.00;99281.75;5051896;28;20013;-80
2022/12/26 11:22:27;;;;;;;25.13;18.58;;;;;;;10.42;100.00;99284.97;5051653;28;20598;-82
2022/12/26 11:25:16;;;;;;;25.25;19.60;;;;;;;10.48;100.00;99311.53;5049980;28;20028;-83
2022/12/26 11:27:57;;;;;;;28.80;22.88;;;;;;;10.46;100.00;99286.50;5051506;28;20098;-85
2022/12/26 11:30:22;;;;;;;;;;;;;;;10.43;100.00;99284.88;5052042;28;20048;-85
2022/12/26 11:33:05;;;;;;;32.95;24.38;;;;;;;10.33;100.00;99277.66;5050245;28;19920;-82
2022/12/26 11:35:36;;;;;;;37.78;28.33;;;;;;;10.41;100.00;99286.75;5051734;28;20025;-83
2022/12/26 11:38:04;;;;;;;27.90;22.92;;;;;;;10.42;100.00;99285.81;5051455;28;20118;-82
2022/12/26 11:40:37;;;;;;;23.17;16.70;;;;;;;10.34;100.00;99284.53;5050372;28;20032;-80
2022/12/26 11:43:14;;;;;;;26.85;21.90;;;;;;;10.27;100.00;99270.97;5051793;28;20029;-80
2022/12/26 11:45:48;;;;;;;45.42;33.63;;;;;;;10.29;100.00;99257.91;5051791;28;20021;-79
2022/12/26 11:48:24;;;;;;;39.05;30.80;;;;;;;10.41;100.00;99258.09;5051819;28;20055;-79
2022/12/26 11:50:51;;;;;;;28.00;22.58;;;;;;;10.53;100.00;99233.16;5051395;28;20029;-79
2022/12/26 11:53:20;;;;;;;21.27;16.48;;;;;;;10.51;100.00;99223.78;5050566;28;20033;-80
2022/12/26 11:56:04;;;;;;;20.25;14.10;;;;;;;10.69;100.00;99239.25;5051267;28;20016;-81
2022/12/26 11:58:31;;;;;;;20.95;15.75;;;;;;;10.73;100.00;99245.97;5051584;28;20414;-80
2022/12/26 12:00:59;;;;;;;21.08;15.77;;;;;;;10.77;100.00;99251.84;5051082;28;20017;-81
2022/12/26 12:03:39;;;;;;;14.05;10.15;;;;;;;10.71;100.00;99242.63;5051019;28;20013;-81
2022/12/26 12:06:42;;;;;;;15.45;9.73;;;;;;;10.89;100.00;99261.63;5049690;28;20036;-80
2022/12/26 12:09:48;;;;;;;14.75;9.90;;;;;;;10.98;100.00;99255.06;5051255;28;20031;-83
2022/12/26 12:12:29;;;;;;;9.90;7.88;;;;;;;11.02;100.00;99238.34;5049541;28;20032;-82
2022/12/26 12:15:16;;;;;;;9.20;6.47;;;;;;;11.10;100.00;99251.78;5049490;28;20040;-80
2022/12/26 12:18:12;;;;;;;9.02;6.88;;;;;;;11.19;100.00;99242.63;5050929;28;20024;-82
2022/12/26 12:20:52;;;;;;;8.27;5.40;;;;;;;11.10;100.00;99223.13;5052845;28;20360;-83
2022/12/26 12:23:35;;;;;;;5.60;4.30;;;;;;;11.19;100.00;99240.00;5055321;28;20031;-83
2022/12/26 12:26:09;;;;;;;6.22;4.55;;;;;;;11.25;100.00;99260.56;5054506;28;20416;-83
2022/12/26 12:28:44;;;;;;;8.07;4.35;;;;;;;11.34;100.00;99252.22;5054521;28;20021;-82
2022/12/26 12:31:21;;;;;;;6.63;4.78;;;;;;;11.40;100.00;99256.22;5054515;28;20024;-81
2022/12/26 12:33:58;;;;;;;7.45;4.28;;;;;;;11.34;100.00;99246.16;5053945;28;20369;-82
2022/12/26 12:36:41;;;;;;;7.22;4.60;;;;;;;11.40;100.00;99254.47;5054911;28;20365;-82
2022/12/26 12:39:34;;;;;;;6.13;4.68;;;;;;;11.37;100.00;99249.41;5054480;28;20049;-81
2022/12/26 12:42:18;;;;;;;7.07;4.45;;;;;;;11.37;100.00;99264.22;5053181;28;20024;-79
2022/12/26 12:45:10;;;;;;;7.57;4.93;;;;;;;11.34;100.00;99274.84;5053532;28;20368;-82
2022/12/26 12:48:06;;;;;;;5.10;3.72;;;;;;;11.33;100.00;99266.16;5015746;28;20033;-82
2022/12/26 12:50:56;;;;;;;5.43;4.50;;;;;;;11.29;100.00;99254.22;5032423;28;20029;-82
2022/12/26 12:53:33;;;;;;;5.88;3.85;;;;;;;11.39;100.00;99249.34;5032308;28;20108;-82
2022/12/26 12:56:55;;;;;;;7.07;4.00;;;;;;;11.39;99.77;99255.41;5031916;28;20029;-82
2022/12/26 12:59:45;;;;;;;4.10;3.50;;;;;;;11.38;99.82;99258.09;4954255;28;20039;-82
2022/12/26 13:02:20;;;;;;;6.68;3.92;;;;;;;11.30;100.00;99247.25;4953836;29;20086;-83
2022/12/26 13:04:54;;;;;;;4.53;3.20;;;;;;;11.32;99.51;99253.22;4953934;29;20090;-80
2022/12/26 13:07:34;;;;;;;5.47;3.85;;;;;;;11.20;99.98;99237.31;4953957;29;20035;-82
2022/12/26 13:10:05;;;;;;;4.85;3.95;;;;;;;11.31;99.96;99257.59;4953340;28;20039;-80
2022/12/26 13:12:35;;;;;;;4.65;4.22;;;;;;;11.26;99.96;99257.00;4953639;28;20046;-83
2022/12/26 13:15:07;;;;;;;;;;;;;;;11.32;100.00;99263.63;4953650;28;20106;-84
2022/12/26 13:17:34;;;;;;;6.30;4.13;;;;;;;11.25;99.41;99252.72;4953557;29;20521;-83
2022/12/26 13:20:05;;;;;;;7.40;4.82;;;;;;;11.22;99.41;99250.28;4953599;29;20463;-81
2022/12/26 13:25:27;;;;;;;7.03;5.23;;;;;;;11.20;99.47;99252.13;4988083;28;20058;-81
2022/12/26 13:28:08;;;;;;;5.95;4.13;;;;;;;11.26;99.54;99267.44;4988672;28;20269;-81
2022/12/26 13:30:34;;;;;;;7.60;4.43;;;;;;;11.22;99.31;99263.31;5027369;28;20029;-81
2022/12/26 13:33:00;;;;;;;7.70;4.60;;;;;;;11.22;99.29;99268.53;5053657;28;20098;-81
2022/12/26 13:35:56;;;;;;;5.13;4.18;;;;;;;11.21;99.74;99270.31;5053716;28;20467;-81
2022/12/26 13:38:23;;;;;;;8.18;5.32;;;;;;;11.12;100.00;99272.56;5053880;28;20037;-81
2022/12/26 13:43:53;;;;;;;7.43;4.75;;;;;;;11.10;100.00;99269.19;5052360;28;20484;-81
2022/12/26 13:43:59;;;;;;;5.68;4.30;;;;;;;11.17;100.00;99275.78;5052927;28;20574;-81
2022/12/26 13:46:53;;;;;;;6.22;4.45;;;;;;;11.18;100.00;99270.47;5052184;28;20035;-81
2022/12/26 13:49:45;;;;;;;5.20;4.10;;;;;;;11.16;100.00;99272.28;5053419;28;20032;-81